KPUW/PUW METAR and TAF weather

Enter ICAO airport designator
Station Type Date Time Source
KPUW METAR 2019/06/26 05:53 UTC NOAA

KPUW 260553Z AUTO 16008KT 10SM FEW085 FEW120 17/09 A2989 RMK AO2 SLP113 T01670089 10233 20167 53021


Station Type Date Time Source
KPUW Decoded METAR 2019/06/26 05:53 UTC NOAA

PULLMAN/MOSCOW RGNL AIRPORT , WA, United States (KPUW) 46-45N 117-07W 773M
Jun 26, 2019 - 01:53 AM EDT / 2019.06.26 0553 UTC
Wind: from the SSE (160 degrees) at 9 MPH (8 KT):0
Visibility: 10 mile(s):0
Sky conditions: mostly clear
Temperature: 62.1 F (16.7 C)
Dew Point: 48.0 F (8.9 C)
Relative Humidity: 59%
Pressure (altimeter): 29.89 in. Hg (1012 hPa)
Pressure tendency: 0.06 inches (2.1 hPa) higher than three hours ago
ob: KPUW 260553Z AUTO 16008KT 10SM FEW085 FEW120 17/09 A2989 RMK AO2 SLP113 T01670089 10233 20167 53021
cycle: 6

Station Type Date Time Source
KPUW TAF 2019/06/26 06:42 UTC NOAA

TAF KPUW 260540Z 2606/2706 12003KT P6SM VCSH FEW080 SCT100 OVC120
FM261100 VRB04KT P6SM BKN100
FM262200 24010KT P6SM VCTS SCT040CB OVC080
FM270000 24025G39KT P6SM +TSRA SCT020CB OVC050
FM270130 25010KT P6SM VCTS SCT035CB OVC070

Example: see airport list